createdAt,value
2022-08-01T00:00:45.711Z,99930.91
2022-08-01T00:05:49.951Z,99917.53
2022-08-01T00:10:52.714Z,99927.91
2022-08-01T00:15:55.408Z,99926.84
2022-08-01T00:20:59.776Z,99930.13
2022-08-01T00:26:02.790Z,99928.09
2022-08-01T00:31:05.549Z,99920.09
2022-08-01T00:36:09.774Z,99912.66
2022-08-01T00:41:12.657Z,99916.97
2022-08-01T00:46:15.745Z,99915.66
2022-08-01T00:51:19.973Z,99916.63
2022-08-01T00:56:23.837Z,99940.41
2022-08-01T01:01:39.271Z,99934.38
2022-08-01T01:06:50.702Z,99926.81
2022-08-01T01:12:00.481Z,99924.25
2022-08-01T01:17:04.991Z,99917.50
2022-08-01T01:22:21.514Z,99912.16
2022-08-01T01:27:31.463Z,99910.31
2022-08-01T01:32:38.281Z,99922.84
2022-08-01T01:37:41.857Z,99918.53
2022-08-01T01:42:45.513Z,99919.59
2022-08-01T01:47:50.081Z,99920.28
2022-08-01T01:52:53.360Z,99914.53
2022-08-01T01:57:57.877Z,99913.50
2022-08-01T02:03:03.583Z,99921.88
2022-08-01T02:08:07.005Z,99917.06
2022-08-01T02:13:11.950Z,99922.06
2022-08-01T02:18:17.128Z,99929.25
2022-08-01T02:23:23.220Z,99929.41
2022-08-01T02:28:29.199Z,99935.63
2022-08-01T02:33:37.329Z,99924.22
2022-08-01T02:38:45.394Z,99931.84
2022-08-01T02:43:53.347Z,99928.22
2022-08-01T02:48:58.954Z,99924.31
2022-08-01T02:54:04.197Z,99928.66
2022-08-01T02:59:10.140Z,99925.44
2022-08-01T03:04:14.890Z,99928.16
2022-08-01T03:09:17.778Z,99933.81
2022-08-01T03:14:23.022Z,99931.16
2022-08-01T03:19:29.954Z,99935.28
2022-08-01T03:24:33.323Z,99935.97
2022-08-01T03:29:36.791Z,99943.53
2022-08-01T03:34:40.978Z,99955.16
2022-08-01T03:39:49.636Z,99952.78
2022-08-01T03:45:13.524Z,99961.09
2022-08-01T03:50:18.817Z,99960.44
2022-08-01T03:55:22.886Z,99959.53
2022-08-01T04:00:26.500Z,99970.28
2022-08-01T04:05:30.688Z,99962.06
2022-08-01T04:10:33.613Z,99966.97
2022-08-01T04:15:37.080Z,99970.91
2022-08-01T04:20:41.598Z,99975.84
2022-08-01T04:25:45.325Z,99980.81
2022-08-01T04:30:48.866Z,99982.88
2022-08-01T04:36:02.639Z,99995.00
2022-08-01T04:41:09.909Z,99992.22
2022-08-01T04:46:13.025Z,99989.38
2022-08-01T04:51:18.003Z,100000.88
2022-08-01T04:56:21.733Z,100001.97
2022-08-01T05:01:24.567Z,100005.41
2022-08-01T05:06:28.657Z,100005.56
2022-08-01T05:11:31.851Z,100006.63
2022-08-01T05:16:34.754Z,100014.69
2022-08-01T05:21:39.010Z,100013.81
2022-08-01T05:26:41.874Z,100014.16
2022-08-01T05:31:44.787Z,100016.91
2022-08-01T05:36:52.964Z,100005.59
2022-08-01T05:41:59.562Z,100009.75
2022-08-01T05:47:03.627Z,100011.72
2022-08-01T05:52:08.739Z,100017.81
2022-08-01T05:57:11.724Z,100018.84
2022-08-01T06:02:15.286Z,100019.28
2022-08-01T06:07:19.506Z,100015.66
2022-08-01T06:12:22.341Z,100017.63
2022-08-01T06:17:26.089Z,100018.41
2022-08-01T06:22:30.170Z,100009.63
2022-08-01T06:27:36.159Z,100025.00
2022-08-01T06:32:38.918Z,100029.47
2022-08-01T06:37:43.626Z,100023.22
2022-08-01T06:42:46.800Z,100041.25
2022-08-01T06:47:50.475Z,100038.41
2022-08-01T06:52:55.062Z,100040.03
2022-08-01T06:57:58.179Z,100037.03
2022-08-01T07:03:01.397Z,100037.97
2022-08-01T07:08:06.001Z,100038.81
2022-08-01T07:13:08.921Z,100055.25
2022-08-01T07:18:11.649Z,100047.63
2022-08-01T07:23:15.848Z,100057.97
2022-08-01T07:28:18.650Z,100056.34
2022-08-01T07:33:21.346Z,100053.19
2022-08-01T07:38:25.594Z,100048.44
2022-08-01T07:43:28.328Z,100046.09
2022-08-01T07:48:31.252Z,100051.63
2022-08-01T07:53:35.287Z,100052.13
2022-08-01T07:58:38.012Z,100054.16
2022-08-01T08:03:40.929Z,100042.28
2022-08-01T08:08:45.021Z,100051.38
2022-08-01T08:13:47.813Z,100063.81
2022-08-01T08:18:50.566Z,100064.53
2022-08-01T08:24:12.021Z,100067.72
2022-08-01T08:29:15.870Z,100071.53
2022-08-01T08:34:18.753Z,100070.19
2022-08-01T08:39:23.080Z,100068.91
2022-08-01T08:44:25.890Z,100070.47
2022-08-01T08:49:35.912Z,100072.78
2022-08-01T08:54:43.361Z,100088.44
2022-08-01T08:59:46.497Z,100082.94
2022-08-01T09:04:50.464Z,100080.09
2022-08-01T09:09:54.498Z,100091.03
2022-08-01T09:14:57.251Z,100090.06
2022-08-01T09:20:00.023Z,100090.88
2022-08-01T09:25:08.318Z,100094.16
2022-08-01T09:30:13.270Z,100098.56
2022-08-01T09:35:31.160Z,100091.00
2022-08-01T09:40:51.516Z,100110.63
2022-08-01T09:45:55.034Z,100107.03
2022-08-01T09:51:04.382Z,100105.59
2022-08-01T09:56:13.041Z,100105.47
2022-08-01T10:01:15.799Z,100103.44
2022-08-01T10:06:25.053Z,100110.03
2022-08-01T10:11:36.118Z,100109.19
2022-08-01T10:16:41.262Z,100107.84
2022-08-01T10:21:58.737Z,100133.28
2022-08-01T10:27:08.299Z,100127.25
2022-08-01T10:32:12.299Z,100122.16
2022-08-01T10:37:15.898Z,100119.38
2022-08-01T10:42:20.258Z,100126.81
2022-08-01T10:47:49.935Z,100124.09
2022-08-01T10:53:15.287Z,100115.56
2022-08-01T10:58:25.416Z,100116.41
2022-08-01T11:03:56.104Z,100114.81
2022-08-01T11:09:00.182Z,100112.53
2022-08-01T11:14:09.294Z,100104.16
2022-08-01T11:19:12.322Z,100107.50
2022-08-01T11:24:15.234Z,100106.59
2022-08-01T11:29:22.445Z,100106.38
2022-08-01T11:34:54.472Z,100117.50
2022-08-01T11:40:16.366Z,100112.63
2022-08-01T11:45:21.772Z,100120.38
2022-08-01T11:50:35.145Z,100102.25
2022-08-01T11:55:38.094Z,100115.03
2022-08-01T12:00:44.049Z,100113.03
2022-08-01T12:05:49.923Z,100108.69
2022-08-01T12:10:52.696Z,100117.50
2022-08-01T12:16:11.485Z,100113.44
2022-08-01T12:21:14.283Z,100116.84
2022-08-01T12:26:28.610Z,100121.69
2022-08-01T12:31:36.741Z,100122.03
2022-08-01T12:36:39.494Z,100113.69
2022-08-01T12:41:44.959Z,100115.47
2022-08-01T12:46:53.571Z,100127.47
2022-08-01T12:51:57.709Z,100133.13
2022-08-01T12:57:00.505Z,100139.91
2022-08-01T13:02:12.103Z,100127.50
2022-08-01T13:07:14.875Z,100131.69
2022-08-01T13:12:17.705Z,100130.59
2022-08-01T13:17:33.436Z,100131.56
2022-08-01T13:22:36.683Z,100123.00
2022-08-01T13:27:39.466Z,100135.94
2022-08-01T13:33:01.318Z,100129.72
2022-08-01T13:38:04.200Z,100140.66
2022-08-01T13:43:07.096Z,100128.59
2022-08-01T13:48:12.889Z,100118.97
2022-08-01T13:53:22.205Z,100135.44
2022-08-01T13:58:25.567Z,100129.03
2022-08-01T14:03:33.756Z,100132.09
2022-08-01T14:08:36.918Z,100141.31
2022-08-01T14:13:45.107Z,100143.75
2022-08-01T14:18:51.372Z,100140.59
2022-08-01T14:23:55.262Z,100145.13
2022-08-01T14:28:58.333Z,100149.91
2022-08-01T14:34:02.603Z,100148.16
2022-08-01T14:39:05.323Z,100146.38
2022-08-01T14:44:09.921Z,100152.75
2022-08-01T14:49:14.326Z,100146.34
2022-08-01T14:54:17.021Z,100141.59
2022-08-01T14:59:30.023Z,100149.53
2022-08-01T15:04:34.086Z,100154.53
2022-08-01T15:09:36.854Z,100165.13
2022-08-01T15:14:51.494Z,100153.47
2022-08-01T15:19:56.503Z,100157.28
2022-08-01T15:25:01.611Z,100166.38
2022-08-01T15:30:06.065Z,100169.16
2022-08-01T15:35:12.012Z,100166.97
2022-08-01T15:40:14.848Z,100165.19
2022-08-01T15:45:45.782Z,100165.84
2022-08-01T15:50:44.315Z,100168.34
2022-08-01T15:55:52.663Z,100165.63
2022-08-01T16:00:55.653Z,100166.88
2022-08-01T16:05:59.812Z,100159.41
2022-08-01T16:11:03.181Z,100158.88
2022-08-01T16:16:06.464Z,100165.09
2022-08-01T16:21:11.816Z,100158.03
2022-08-01T16:26:27.112Z,100164.41
2022-08-01T16:31:37.572Z,100179.41
2022-08-01T16:36:56.412Z,100169.44
2022-08-01T16:41:59.277Z,100165.81
2022-08-01T16:47:05.435Z,100165.81
2022-08-01T16:52:10.151Z,100159.22
2022-08-01T16:57:13.612Z,100160.38
2022-08-01T17:02:16.824Z,100158.81
2022-08-01T17:07:20.967Z,100165.69
2022-08-01T17:12:24.022Z,100166.31
2022-08-01T17:17:26.966Z,100175.88
2022-08-01T17:22:31.541Z,100175.69
2022-08-01T17:27:34.303Z,100185.47
2022-08-01T17:32:37.371Z,100170.56
2022-08-01T17:37:41.392Z,100169.50
2022-08-01T17:42:44.549Z,100169.09
2022-08-01T17:47:50.787Z,100171.91
2022-08-01T17:52:55.257Z,100183.38
2022-08-01T17:57:58.047Z,100180.50
2022-08-01T18:03:00.813Z,100188.66
2022-08-01T18:08:07.834Z,100186.78
2022-08-01T18:13:10.658Z,100197.81
2022-08-01T18:18:14.017Z,100190.25
2022-08-01T18:23:18.227Z,100200.44
2022-08-01T18:28:31.392Z,100201.44
2022-08-01T18:33:37.245Z,100209.41
2022-08-01T18:38:44.172Z,100204.91
2022-08-01T18:43:48.608Z,100208.97
2022-08-01T18:48:51.485Z,100207.25
2022-08-01T18:53:57.763Z,100214.34
2022-08-01T18:59:00.541Z,100238.63
2022-08-01T19:04:03.493Z,100243.66
2022-08-01T19:09:07.948Z,100251.69
2022-08-01T19:14:11.779Z,100259.94
2022-08-01T19:19:14.598Z,100270.91
2022-08-01T19:24:31.960Z,100272.28
2022-08-01T19:29:36.881Z,100280.78
2022-08-01T19:34:49.778Z,100289.97
2022-08-01T19:39:53.887Z,100290.75
2022-08-01T19:44:57.847Z,100299.81
2022-08-01T19:50:01.434Z,100288.25
2022-08-01T19:55:06.920Z,100300.44
2022-08-01T20:00:23.892Z,100299.09
2022-08-01T20:05:31.267Z,100303.66
2022-08-01T20:10:37.438Z,100310.44
2022-08-01T20:15:40.167Z,100312.31
2022-08-01T20:20:44.762Z,100317.03
2022-08-01T20:25:51.709Z,100326.75
2022-08-01T20:30:56.671Z,100323.22
2022-08-01T20:36:00.860Z,100336.63
2022-08-01T20:41:06.485Z,100350.00
2022-08-01T20:46:09.494Z,100354.34
2022-08-01T20:51:19.473Z,100348.97
2022-08-01T20:56:30.493Z,100359.66
2022-08-01T21:01:39.840Z,100364.41
2022-08-01T21:06:45.178Z,100365.19
2022-08-01T21:11:51.641Z,100367.50
2022-08-01T21:16:59.892Z,100367.31
2022-08-01T21:22:09.970Z,100372.47
2022-08-01T21:27:17.142Z,100373.13
2022-08-01T21:32:22.724Z,100371.72
2022-08-01T21:37:25.523Z,100375.81
2022-08-01T21:42:29.821Z,100376.09
2022-08-01T21:47:32.599Z,100376.34
2022-08-01T21:52:43.432Z,100376.19
2022-08-01T21:58:13.680Z,100374.38
2022-08-01T22:03:24.180Z,100377.09
2022-08-01T22:08:30.766Z,100377.78
2022-08-01T22:13:35.712Z,100386.50
2022-08-01T22:18:39.747Z,100392.88
2022-08-01T22:23:43.305Z,100394.72
2022-08-01T22:28:47.525Z,100400.84
2022-08-01T22:33:50.554Z,100398.59
2022-08-01T22:38:53.241Z,100405.38
2022-08-01T22:44:01.876Z,100395.94
2022-08-01T22:49:11.492Z,100393.66
2022-08-01T22:54:16.224Z,100408.66
2022-08-01T22:59:27.998Z,100411.13
2022-08-01T23:04:47.381Z,100414.19
2022-08-01T23:09:53.921Z,100418.50
2022-08-01T23:15:00.314Z,100417.06
2022-08-01T23:20:06.018Z,100418.72
2022-08-01T23:25:11.239Z,100425.31
2022-08-01T23:30:15.430Z,100419.56
2022-08-01T23:35:18.472Z,100408.25
2022-08-01T23:40:24.999Z,100420.38
2022-08-01T23:46:02.602Z,100417.72
2022-08-01T23:50:52.793Z,100403.78
2022-08-01T23:55:55.675Z,100398.22
